sensor_id;sensor_type;location;lat;lon;timestamp;P1;durP1;ratioP1;P2;durP2;ratioP2
20802;SDS011;10562;-33.856;151.182;2023-07-24T00:00:41;11.43;;;3.10;;
20802;SDS011;10562;-33.856;151.182;2023-07-24T00:03:12;13.10;;;3.55;;
20802;SDS011;10562;-33.856;151.182;2023-07-24T00:05:43;13.25;;;3.20;;
20802;SDS011;10562;-33.856;151.182;2023-07-24T00:08:13;9.88;;;2.90;;
20802;SDS011;10562;-33.856;151.182;2023-07-24T00:10:44;10.68;;;2.90;;
20802;SDS011;10562;-33.856;151.182;2023-07-24T00:13:17;8.13;;;2.92;;
20802;SDS011;10562;-33.856;151.182;2023-07-24T00:15:47;7.25;;;2.30;;
20802;SDS011;10562;-33.856;151.182;2023-07-24T00:18:18;8.25;;;2.85;;
20802;SDS011;10562;-33.856;151.182;2023-07-24T00:20:49;12.48;;;2.60;;
20802;SDS011;10562;-33.856;151.182;2023-07-24T00:23:20;9.98;;;3.00;;
20802;SDS011;10562;-33.856;151.182;2023-07-24T00:25:50;10.10;;;2.83;;
20802;SDS011;10562;-33.856;151.182;2023-07-24T00:28:23;8.48;;;3.42;;
20802;SDS011;10562;-33.856;151.182;2023-07-24T00:30:54;9.15;;;3.08;;
20802;SDS011;10562;-33.856;151.182;2023-07-24T00:33:24;12.55;;;3.40;;
20802;SDS011;10562;-33.856;151.182;2023-07-24T00:35:56;9.07;;;3.13;;
20802;SDS011;10562;-33.856;151.182;2023-07-24T00:38:26;13.85;;;3.40;;
20802;SDS011;10562;-33.856;151.182;2023-07-24T00:40:57;10.50;;;3.15;;
20802;SDS011;10562;-33.856;151.182;2023-07-24T00:43:30;12.60;;;3.97;;
20802;SDS011;10562;-33.856;151.182;2023-07-24T00:47:06;12.20;;;3.35;;
20802;SDS011;10562;-33.856;151.182;2023-07-24T00:49:37;8.80;;;3.35;;
20802;SDS011;10562;-33.856;151.182;2023-07-24T00:52:08;13.38;;;3.65;;
20802;SDS011;10562;-33.856;151.182;2023-07-24T00:54:39;14.25;;;3.95;;
20802;SDS011;10562;-33.856;151.182;2023-07-24T00:57:10;10.45;;;3.75;;
20802;SDS011;10562;-33.856;151.182;2023-07-24T00:59:42;14.85;;;3.80;;
20802;SDS011;10562;-33.856;151.182;2023-07-24T01:02:17;12.80;;;2.92;;
20802;SDS011;10562;-33.856;151.182;2023-07-24T01:04:48;6.72;;;2.75;;
20802;SDS011;10562;-33.856;151.182;2023-07-24T01:07:19;10.18;;;3.17;;
20802;SDS011;10562;-33.856;151.182;2023-07-24T01:09:50;7.97;;;2.75;;
20802;SDS011;10562;-33.856;151.182;2023-07-24T01:12:22;13.70;;;3.08;;
20802;SDS011;10562;-33.856;151.182;2023-07-24T01:15:01;10.32;;;3.55;;
20802;SDS011;10562;-33.856;151.182;2023-07-24T01:17:42;12.55;;;3.63;;
20802;SDS011;10562;-33.856;151.182;2023-07-24T01:20:18;12.73;;;3.80;;
20802;SDS011;10562;-33.856;151.182;2023-07-24T01:22:57;47.95;;;18.65;;
20802;SDS011;10562;-33.856;151.182;2023-07-24T01:25:53;22.38;;;9.63;;
20802;SDS011;10562;-33.856;151.182;2023-07-24T01:28:25;13.88;;;3.85;;
20802;SDS011;10562;-33.856;151.182;2023-07-24T01:30:56;17.65;;;5.28;;
20802;SDS011;10562;-33.856;151.182;2023-07-24T01:33:27;16.80;;;6.03;;
20802;SDS011;10562;-33.856;151.182;2023-07-24T01:35:58;13.40;;;4.25;;
20802;SDS011;10562;-33.856;151.182;2023-07-24T01:38:30;12.77;;;3.75;;
20802;SDS011;10562;-33.856;151.182;2023-07-24T01:41:05;14.20;;;3.65;;
20802;SDS011;10562;-33.856;151.182;2023-07-24T01:43:37;12.80;;;3.80;;
20802;SDS011;10562;-33.856;151.182;2023-07-24T01:46:07;17.25;;;3.53;;
20802;SDS011;10562;-33.856;151.182;2023-07-24T01:48:38;8.80;;;3.15;;
20802;SDS011;10562;-33.856;151.182;2023-07-24T01:51:09;10.73;;;3.45;;
20802;SDS011;10562;-33.856;151.182;2023-07-24T01:53:40;11.70;;;3.65;;
20802;SDS011;10562;-33.856;151.182;2023-07-24T01:56:12;10.23;;;3.60;;
20802;SDS011;10562;-33.856;151.182;2023-07-24T01:58:43;12.20;;;3.10;;
20802;SDS011;10562;-33.856;151.182;2023-07-24T02:01:14;8.13;;;2.63;;
20802;SDS011;10562;-33.856;151.182;2023-07-24T02:03:45;7.93;;;2.50;;
20802;SDS011;10562;-33.856;151.182;2023-07-24T02:06:17;10.75;;;2.80;;
20802;SDS011;10562;-33.856;151.182;2023-07-24T02:08:47;10.23;;;3.10;;
20802;SDS011;10562;-33.856;151.182;2023-07-24T02:11:20;13.07;;;2.80;;
20802;SDS011;10562;-33.856;151.182;2023-07-24T02:13:51;7.80;;;2.75;;
20802;SDS011;10562;-33.856;151.182;2023-07-24T02:16:22;11.18;;;2.47;;
20802;SDS011;10562;-33.856;151.182;2023-07-24T02:18:52;9.50;;;2.22;;
20802;SDS011;10562;-33.856;151.182;2023-07-24T02:21:23;11.88;;;2.25;;
20802;SDS011;10562;-33.856;151.182;2023-07-24T02:23:54;10.20;;;1.98;;
20802;SDS011;10562;-33.856;151.182;2023-07-24T02:26:27;9.15;;;2.35;;
20802;SDS011;10562;-33.856;151.182;2023-07-24T02:28:57;10.88;;;2.30;;
20802;SDS011;10562;-33.856;151.182;2023-07-24T02:31:28;10.23;;;2.30;;
20802;SDS011;10562;-33.856;151.182;2023-07-24T02:33:59;10.10;;;2.17;;
20802;SDS011;10562;-33.856;151.182;2023-07-24T02:36:30;12.90;;;2.55;;
20802;SDS011;10562;-33.856;151.182;2023-07-24T02:39:00;13.98;;;2.58;;
20802;SDS011;10562;-33.856;151.182;2023-07-24T02:41:33;9.52;;;2.40;;
20802;SDS011;10562;-33.856;151.182;2023-07-24T02:44:04;11.00;;;2.90;;
20802;SDS011;10562;-33.856;151.182;2023-07-24T02:46:35;8.88;;;2.83;;
20802;SDS011;10562;-33.856;151.182;2023-07-24T02:49:06;8.73;;;2.45;;
20802;SDS011;10562;-33.856;151.182;2023-07-24T02:51:36;11.50;;;2.55;;
20802;SDS011;10562;-33.856;151.182;2023-07-24T02:54:07;9.75;;;2.28;;
20802;SDS011;10562;-33.856;151.182;2023-07-24T02:56:40;10.10;;;2.30;;
20802;SDS011;10562;-33.856;151.182;2023-07-24T02:59:11;10.50;;;2.45;;
20802;SDS011;10562;-33.856;151.182;2023-07-24T03:01:42;9.20;;;2.85;;
20802;SDS011;10562;-33.856;151.182;2023-07-24T03:04:13;15.38;;;2.80;;
20802;SDS011;10562;-33.856;151.182;2023-07-24T03:06:44;10.10;;;2.40;;
20802;SDS011;10562;-33.856;151.182;2023-07-24T03:09:15;12.10;;;3.15;;
20802;SDS011;10562;-33.856;151.182;2023-07-24T03:11:49;12.00;;;2.78;;
20802;SDS011;10562;-33.856;151.182;2023-07-24T03:14:19;5.85;;;1.95;;
20802;SDS011;10562;-33.856;151.182;2023-07-24T03:16:50;9.18;;;2.30;;
20802;SDS011;10562;-33.856;151.182;2023-07-24T03:19:21;9.63;;;2.50;;
20802;SDS011;10562;-33.856;151.182;2023-07-24T03:21:52;6.60;;;1.90;;
20802;SDS011;10562;-33.856;151.182;2023-07-24T03:24:22;10.70;;;2.08;;
20802;SDS011;10562;-33.856;151.182;2023-07-24T03:26:56;10.05;;;2.33;;
20802;SDS011;10562;-33.856;151.182;2023-07-24T03:29:31;9.85;;;2.28;;
20802;SDS011;10562;-33.856;151.182;2023-07-24T03:32:03;10.60;;;2.30;;
20802;SDS011;10562;-33.856;151.182;2023-07-24T03:34:34;6.57;;;2.10;;
20802;SDS011;10562;-33.856;151.182;2023-07-24T03:37:05;9.23;;;2.50;;
20802;SDS011;10562;-33.856;151.182;2023-07-24T03:39:36;10.20;;;2.45;;
20802;SDS011;10562;-33.856;151.182;2023-07-24T03:42:09;12.82;;;2.45;;
20802;SDS011;10562;-33.856;151.182;2023-07-24T03:44:40;10.40;;;2.42;;
20802;SDS011;10562;-33.856;151.182;2023-07-24T03:47:11;12.02;;;2.28;;
20802;SDS011;10562;-33.856;151.182;2023-07-24T03:49:42;9.65;;;2.38;;
20802;SDS011;10562;-33.856;151.182;2023-07-24T03:52:16;10.98;;;2.50;;
20802;SDS011;10562;-33.856;151.182;2023-07-24T03:54:46;10.07;;;2.25;;
20802;SDS011;10562;-33.856;151.182;2023-07-24T03:57:19;9.75;;;2.38;;
20802;SDS011;10562;-33.856;151.182;2023-07-24T03:59:50;7.70;;;2.33;;
20802;SDS011;10562;-33.856;151.182;2023-07-24T04:02:20;7.45;;;2.25;;
20802;SDS011;10562;-33.856;151.182;2023-07-24T04:04:52;10.85;;;2.13;;
20802;SDS011;10562;-33.856;151.182;2023-07-24T04:07:23;13.70;;;2.83;;
20802;SDS011;10562;-33.856;151.182;2023-07-24T04:09:53;9.32;;;2.38;;
20802;SDS011;10562;-33.856;151.182;2023-07-24T04:12:26;7.00;;;2.00;;
20802;SDS011;10562;-33.856;151.182;2023-07-24T04:14:57;10.90;;;2.47;;
20802;SDS011;10562;-33.856;151.182;2023-07-24T04:17:28;10.20;;;2.35;;
20802;SDS011;10562;-33.856;151.182;2023-07-24T04:19:59;12.50;;;2.28;;
20802;SDS011;10562;-33.856;151.182;2023-07-24T04:22:30;8.75;;;2.40;;
20802;SDS011;10562;-33.856;151.182;2023-07-24T04:25:01;10.02;;;2.30;;
20802;SDS011;10562;-33.856;151.182;2023-07-24T04:27:34;8.95;;;2.10;;
20802;SDS011;10562;-33.856;151.182;2023-07-24T04:30:05;9.10;;;1.90;;
20802;SDS011;10562;-33.856;151.182;2023-07-24T04:32:37;9.05;;;1.80;;
20802;SDS011;10562;-33.856;151.182;2023-07-24T04:35:08;10.60;;;2.25;;
20802;SDS011;10562;-33.856;151.182;2023-07-24T04:37:39;7.88;;;1.90;;
20802;SDS011;10562;-33.856;151.182;2023-07-24T04:40:10;10.77;;;2.22;;
20802;SDS011;10562;-33.856;151.182;2023-07-24T04:42:43;6.68;;;1.95;;
20802;SDS011;10562;-33.856;151.182;2023-07-24T04:45:15;12.38;;;2.25;;
20802;SDS011;10562;-33.856;151.182;2023-07-24T04:47:46;8.18;;;2.20;;
20802;SDS011;10562;-33.856;151.182;2023-07-24T04:50:17;10.20;;;2.10;;
20802;SDS011;10562;-33.856;151.182;2023-07-24T04:52:48;9.13;;;2.10;;
20802;SDS011;10562;-33.856;151.182;2023-07-24T04:55:19;6.95;;;2.13;;
20802;SDS011;10562;-33.856;151.182;2023-07-24T04:57:51;11.13;;;2.38;;
20802;SDS011;10562;-33.856;151.182;2023-07-24T05:00:22;9.10;;;2.10;;
20802;SDS011;10562;-33.856;151.182;2023-07-24T05:02:53;6.50;;;1.88;;
20802;SDS011;10562;-33.856;151.182;2023-07-24T05:05:23;11.68;;;1.98;;
20802;SDS011;10562;-33.856;151.182;2023-07-24T05:07:54;10.00;;;2.00;;
20802;SDS011;10562;-33.856;151.182;2023-07-24T05:10:25;10.27;;;2.10;;
20802;SDS011;10562;-33.856;151.182;2023-07-24T05:12:58;9.73;;;2.30;;
20802;SDS011;10562;-33.856;151.182;2023-07-24T05:15:28;9.02;;;2.00;;
20802;SDS011;10562;-33.856;151.182;2023-07-24T05:18:00;8.95;;;2.28;;
20802;SDS011;10562;-33.856;151.182;2023-07-24T05:20:31;7.20;;;2.08;;
20802;SDS011;10562;-33.856;151.182;2023-07-24T05:23:02;10.00;;;2.30;;
20802;SDS011;10562;-33.856;151.182;2023-07-24T05:25:32;11.25;;;1.95;;
20802;SDS011;10562;-33.856;151.182;2023-07-24T05:28:06;5.90;;;2.00;;
20802;SDS011;10562;-33.856;151.182;2023-07-24T05:30:37;8.13;;;1.98;;
20802;SDS011;10562;-33.856;151.182;2023-07-24T05:33:08;8.23;;;1.80;;
20802;SDS011;10562;-33.856;151.182;2023-07-24T05:35:39;13.25;;;2.53;;
20802;SDS011;10562;-33.856;151.182;2023-07-24T05:38:10;10.57;;;2.10;;
20802;SDS011;10562;-33.856;151.182;2023-07-24T05:40:40;6.82;;;2.00;;
20802;SDS011;10562;-33.856;151.182;2023-07-24T05:43:13;7.65;;;2.05;;
20802;SDS011;10562;-33.856;151.182;2023-07-24T05:45:44;10.52;;;2.25;;
20802;SDS011;10562;-33.856;151.182;2023-07-24T05:48:15;6.68;;;2.00;;
20802;SDS011;10562;-33.856;151.182;2023-07-24T05:50:46;10.85;;;2.55;;
20802;SDS011;10562;-33.856;151.182;2023-07-24T05:53:17;8.80;;;2.35;;
20802;SDS011;10562;-33.856;151.182;2023-07-24T05:55:55;12.25;;;2.05;;
20802;SDS011;10562;-33.856;151.182;2023-07-24T05:58:29;8.65;;;2.35;;
20802;SDS011;10562;-33.856;151.182;2023-07-24T06:01:00;7.75;;;2.45;;
20802;SDS011;10562;-33.856;151.182;2023-07-24T06:03:31;12.63;;;2.35;;
20802;SDS011;10562;-33.856;151.182;2023-07-24T06:06:02;10.02;;;2.38;;
20802;SDS011;10562;-33.856;151.182;2023-07-24T06:08:33;7.38;;;1.92;;
20802;SDS011;10562;-33.856;151.182;2023-07-24T06:11:03;9.82;;;2.30;;
20802;SDS011;10562;-33.856;151.182;2023-07-24T06:13:36;8.77;;;2.50;;
20802;SDS011;10562;-33.856;151.182;2023-07-24T06:16:07;8.50;;;2.38;;
20802;SDS011;10562;-33.856;151.182;2023-07-24T06:18:40;8.25;;;2.17;;
20802;SDS011;10562;-33.856;151.182;2023-07-24T06:21:10;8.93;;;2.30;;
20802;SDS011;10562;-33.856;151.182;2023-07-24T06:23:41;11.65;;;2.40;;
20802;SDS011;10562;-33.856;151.182;2023-07-24T06:26:12;10.20;;;2.22;;
20802;SDS011;10562;-33.856;151.182;2023-07-24T06:28:45;10.15;;;2.25;;
20802;SDS011;10562;-33.856;151.182;2023-07-24T06:31:16;7.82;;;2.10;;
20802;SDS011;10562;-33.856;151.182;2023-07-24T06:33:48;8.13;;;2.38;;
20802;SDS011;10562;-33.856;151.182;2023-07-24T06:36:19;9.05;;;2.40;;
20802;SDS011;10562;-33.856;151.182;2023-07-24T06:38:50;6.68;;;2.38;;
20802;SDS011;10562;-33.856;151.182;2023-07-24T06:41:20;10.50;;;2.55;;
20802;SDS011;10562;-33.856;151.182;2023-07-24T06:43:53;8.45;;;2.45;;
20802;SDS011;10562;-33.856;151.182;2023-07-24T06:46:24;7.45;;;2.03;;
20802;SDS011;10562;-33.856;151.182;2023-07-24T06:48:55;9.95;;;2.35;;
20802;SDS011;10562;-33.856;151.182;2023-07-24T06:51:26;9.88;;;2.30;;
20802;SDS011;10562;-33.856;151.182;2023-07-24T06:53:57;8.20;;;2.28;;
20802;SDS011;10562;-33.856;151.182;2023-07-24T06:56:29;9.35;;;2.17;;
20802;SDS011;10562;-33.856;151.182;2023-07-24T06:59:01;11.13;;;2.38;;
20802;SDS011;10562;-33.856;151.182;2023-07-24T07:01:32;9.07;;;2.55;;
20802;SDS011;10562;-33.856;151.182;2023-07-24T07:04:03;8.95;;;2.38;;
20802;SDS011;10562;-33.856;151.182;2023-07-24T07:06:34;8.75;;;2.28;;
20802;SDS011;10562;-33.856;151.182;2023-07-24T07:09:05;7.53;;;2.35;;
20802;SDS011;10562;-33.856;151.182;2023-07-24T07:11:35;13.10;;;2.95;;
20802;SDS011;10562;-33.856;151.182;2023-07-24T07:14:08;10.75;;;2.38;;
20802;SDS011;10562;-33.856;151.182;2023-07-24T07:16:39;13.18;;;2.55;;
20802;SDS011;10562;-33.856;151.182;2023-07-24T07:19:10;13.02;;;2.67;;
20802;SDS011;10562;-33.856;151.182;2023-07-24T07:21:41;11.15;;;2.30;;
20802;SDS011;10562;-33.856;151.182;2023-07-24T07:24:12;9.40;;;2.40;;
20802;SDS011;10562;-33.856;151.182;2023-07-24T07:26:42;9.88;;;2.40;;
20802;SDS011;10562;-33.856;151.182;2023-07-24T07:29:15;12.25;;;2.78;;
20802;SDS011;10562;-33.856;151.182;2023-07-24T07:31:46;10.98;;;2.88;;
20802;SDS011;10562;-33.856;151.182;2023-07-24T07:34:18;7.88;;;2.42;;
20802;SDS011;10562;-33.856;151.182;2023-07-24T07:36:48;14.00;;;5.75;;
20802;SDS011;10562;-33.856;151.182;2023-07-24T07:39:19;8.98;;;3.13;;
20802;SDS011;10562;-33.856;151.182;2023-07-24T07:41:50;13.05;;;2.92;;
20802;SDS011;10562;-33.856;151.182;2023-07-24T07:44:23;10.10;;;2.92;;
20802;SDS011;10562;-33.856;151.182;2023-07-24T07:46:53;12.90;;;3.10;;
20802;SDS011;10562;-33.856;151.182;2023-07-24T07:49:24;15.60;;;3.40;;
20802;SDS011;10562;-33.856;151.182;2023-07-24T07:51:55;11.93;;;3.50;;
20802;SDS011;10562;-33.856;151.182;2023-07-24T07:54:26;10.48;;;3.58;;
20802;SDS011;10562;-33.856;151.182;2023-07-24T07:56:57;11.00;;;3.45;;
20802;SDS011;10562;-33.856;151.182;2023-07-24T07:59:29;14.02;;;3.80;;
20802;SDS011;10562;-33.856;151.182;2023-07-24T08:02:01;13.90;;;3.55;;
20802;SDS011;10562;-33.856;151.182;2023-07-24T08:04:32;16.15;;;4.18;;
20802;SDS011;10562;-33.856;151.182;2023-07-24T08:07:04;13.75;;;3.92;;
20802;SDS011;10562;-33.856;151.182;2023-07-24T08:09:36;14.52;;;3.72;;
20802;SDS011;10562;-33.856;151.182;2023-07-24T08:12:07;12.75;;;3.83;;
20802;SDS011;10562;-33.856;151.182;2023-07-24T08:14:40;19.27;;;3.55;;
20802;SDS011;10562;-33.856;151.182;2023-07-24T08:17:11;11.43;;;3.65;;
20802;SDS011;10562;-33.856;151.182;2023-07-24T08:19:41;12.13;;;3.55;;
20802;SDS011;10562;-33.856;151.182;2023-07-24T08:22:13;11.80;;;3.70;;
20802;SDS011;10562;-33.856;151.182;2023-07-24T08:24:45;10.55;;;3.40;;
20802;SDS011;10562;-33.856;151.182;2023-07-24T08:27:16;14.30;;;3.80;;
20802;SDS011;10562;-33.856;151.182;2023-07-24T08:29:52;12.23;;;3.60;;
20802;SDS011;10562;-33.856;151.182;2023-07-24T08:32:23;14.85;;;4.00;;
20802;SDS011;10562;-33.856;151.182;2023-07-24T08:34:54;13.32;;;4.10;;
20802;SDS011;10562;-33.856;151.182;2023-07-24T08:37:25;12.65;;;4.05;;
20802;SDS011;10562;-33.856;151.182;2023-07-24T08:39:56;14.73;;;4.22;;
20802;SDS011;10562;-33.856;151.182;2023-07-24T08:42:26;14.30;;;4.22;;
20802;SDS011;10562;-33.856;151.182;2023-07-24T08:45:02;16.90;;;5.53;;
20802;SDS011;10562;-33.856;151.182;2023-07-24T08:47:33;17.45;;;4.43;;
20802;SDS011;10562;-33.856;151.182;2023-07-24T08:50:04;15.73;;;5.50;;
20802;SDS011;10562;-33.856;151.182;2023-07-24T08:52:37;19.27;;;6.30;;
20802;SDS011;10562;-33.856;151.182;2023-07-24T08:55:08;19.98;;;6.38;;
20802;SDS011;10562;-33.856;151.182;2023-07-24T08:57:39;16.25;;;6.03;;
20802;SDS011;10562;-33.856;151.182;2023-07-24T09:00:12;15.48;;;5.65;;
20802;SDS011;10562;-33.856;151.182;2023-07-24T09:02:44;18.33;;;6.07;;
20802;SDS011;10562;-33.856;151.182;2023-07-24T09:05:14;19.08;;;6.22;;
20802;SDS011;10562;-33.856;151.182;2023-07-24T09:07:45;18.60;;;6.68;;
20802;SDS011;10562;-33.856;151.182;2023-07-24T09:10:16;20.27;;;6.40;;
20802;SDS011;10562;-33.856;151.182;2023-07-24T09:12:53;17.98;;;6.00;;
20802;SDS011;10562;-33.856;151.182;2023-07-24T09:15:26;14.02;;;5.15;;
20802;SDS011;10562;-33.856;151.182;2023-07-24T09:17:57;16.60;;;5.35;;
20802;SDS011;10562;-33.856;151.182;2023-07-24T09:20:37;21.20;;;5.38;;
20802;SDS011;10562;-33.856;151.182;2023-07-24T09:23:09;16.95;;;5.30;;
20802;SDS011;10562;-33.856;151.182;2023-07-24T09:25:41;15.65;;;5.30;;
20802;SDS011;10562;-33.856;151.182;2023-07-24T09:28:13;17.95;;;5.55;;
20802;SDS011;10562;-33.856;151.182;2023-07-24T09:30:53;17.25;;;6.50;;
20802;SDS011;10562;-33.856;151.182;2023-07-24T09:33:34;22.13;;;8.38;;
20802;SDS011;10562;-33.856;151.182;2023-07-24T09:36:06;22.92;;;9.38;;
20802;SDS011;10562;-33.856;151.182;2023-07-24T09:38:37;25.92;;;9.63;;
20802;SDS011;10562;-33.856;151.182;2023-07-24T09:41:09;20.85;;;7.57;;
20802;SDS011;10562;-33.856;151.182;2023-07-24T09:43:41;18.73;;;7.00;;
20802;SDS011;10562;-33.856;151.182;2023-07-24T09:46:14;17.25;;;5.88;;
20802;SDS011;10562;-33.856;151.182;2023-07-24T09:48:45;14.20;;;5.60;;
20802;SDS011;10562;-33.856;151.182;2023-07-24T09:51:16;18.40;;;5.40;;
20802;SDS011;10562;-33.856;151.182;2023-07-24T09:53:48;20.05;;;6.15;;
20802;SDS011;10562;-33.856;151.182;2023-07-24T09:56:24;26.70;;;8.60;;
20802;SDS011;10562;-33.856;151.182;2023-07-24T09:58:56;20.58;;;6.70;;
20802;SDS011;10562;-33.856;151.182;2023-07-24T10:01:34;21.88;;;7.07;;
20802;SDS011;10562;-33.856;151.182;2023-07-24T10:04:07;23.08;;;7.85;;
20802;SDS011;10562;-33.856;151.182;2023-07-24T10:06:38;20.15;;;7.70;;
20802;SDS011;10562;-33.856;151.182;2023-07-24T10:09:10;26.42;;;9.20;;
20802;SDS011;10562;-33.856;151.182;2023-07-24T10:11:41;21.42;;;8.90;;
20802;SDS011;10562;-33.856;151.182;2023-07-24T10:14:13;21.38;;;8.65;;
20802;SDS011;10562;-33.856;151.182;2023-07-24T10:16:47;26.33;;;8.50;;
20802;SDS011;10562;-33.856;151.182;2023-07-24T10:19:21;24.60;;;9.02;;
20802;SDS011;10562;-33.856;151.182;2023-07-24T10:21:52;19.77;;;8.57;;
20802;SDS011;10562;-33.856;151.182;2023-07-24T10:24:29;20.92;;;8.18;;
20802;SDS011;10562;-33.856;151.182;2023-07-24T10:26:59;21.23;;;6.97;;
20802;SDS011;10562;-33.856;151.182;2023-07-24T10:29:35;19.92;;;6.53;;
20802;SDS011;10562;-33.856;151.182;2023-07-24T10:32:18;20.38;;;6.25;;
20802;SDS011;10562;-33.856;151.182;2023-07-24T10:34:58;18.77;;;6.20;;
20802;SDS011;10562;-33.856;151.182;2023-07-24T10:37:37;19.85;;;5.80;;
20802;SDS011;10562;-33.856;151.182;2023-07-24T10:40:18;17.50;;;6.47;;
20802;SDS011;10562;-33.856;151.182;2023-07-24T10:42:59;16.10;;;6.07;;
20802;SDS011;10562;-33.856;151.182;2023-07-24T10:48:18;22.10;;;6.93;;
20802;SDS011;10562;-33.856;151.182;2023-07-24T10:50:50;14.43;;;6.20;;
20802;SDS011;10562;-33.856;151.182;2023-07-24T10:53:21;19.00;;;6.20;;
20802;SDS011;10562;-33.856;151.182;2023-07-24T10:55:52;22.38;;;5.72;;
20802;SDS011;10562;-33.856;151.182;2023-07-24T10:58:25;15.13;;;5.35;;
20802;SDS011;10562;-33.856;151.182;2023-07-24T11:00:56;16.75;;;5.50;;
20802;SDS011;10562;-33.856;151.182;2023-07-24T11:03:29;18.13;;;5.28;;
20802;SDS011;10562;-33.856;151.182;2023-07-24T11:06:00;18.95;;;5.57;;
20802;SDS011;10562;-33.856;151.182;2023-07-24T11:08:31;17.02;;;5.40;;
20802;SDS011;10562;-33.856;151.182;2023-07-24T11:11:03;17.52;;;5.57;;
20802;SDS011;10562;-33.856;151.182;2023-07-24T11:13:34;13.18;;;5.47;;
20802;SDS011;10562;-33.856;151.182;2023-07-24T11:16:07;13.93;;;5.95;;
20802;SDS011;10562;-33.856;151.182;2023-07-24T11:18:46;18.55;;;6.30;;
20802;SDS011;10562;-33.856;151.182;2023-07-24T11:21:18;17.35;;;5.75;;
20802;SDS011;10562;-33.856;151.182;2023-07-24T11:23:49;14.85;;;6.00;;
20802;SDS011;10562;-33.856;151.182;2023-07-24T11:26:20;16.92;;;6.07;;
20802;SDS011;10562;-33.856;151.182;2023-07-24T11:28:51;21.02;;;6.78;;
20802;SDS011;10562;-33.856;151.182;2023-07-24T11:31:23;21.52;;;6.22;;
20802;SDS011;10562;-33.856;151.182;2023-07-24T11:33:55;15.88;;;6.10;;
20802;SDS011;10562;-33.856;151.182;2023-07-24T11:36:27;18.98;;;6.18;;
20802;SDS011;10562;-33.856;151.182;2023-07-24T11:38:58;20.02;;;6.15;;
20802;SDS011;10562;-33.856;151.182;2023-07-24T11:41:29;15.48;;;5.75;;
20802;SDS011;10562;-33.856;151.182;2023-07-24T11:44:00;17.58;;;6.07;;
20802;SDS011;10562;-33.856;151.182;2023-07-24T11:46:31;17.65;;;6.13;;
20802;SDS011;10562;-33.856;151.182;2023-07-24T11:49:04;18.48;;;6.53;;
20802;SDS011;10562;-33.856;151.182;2023-07-24T11:51:36;18.83;;;6.50;;
20802;SDS011;10562;-33.856;151.182;2023-07-24T11:54:08;18.00;;;6.30;;
20802;SDS011;10562;-33.856;151.182;2023-07-24T11:56:40;16.85;;;6.20;;
20802;SDS011;10562;-33.856;151.182;2023-07-24T11:59:11;15.73;;;5.95;;
20802;SDS011;10562;-33.856;151.182;2023-07-24T12:01:45;18.50;;;6.68;;
20802;SDS011;10562;-33.856;151.182;2023-07-24T12:04:18;22.30;;;6.40;;
20802;SDS011;10562;-33.856;151.182;2023-07-24T12:06:49;17.55;;;6.47;;
20802;SDS011;10562;-33.856;151.182;2023-07-24T12:09:20;15.68;;;6.40;;
20802;SDS011;10562;-33.856;151.182;2023-07-24T12:11:51;19.33;;;6.78;;
20802;SDS011;10562;-33.856;151.182;2023-07-24T12:14:26;22.13;;;7.85;;
20802;SDS011;10562;-33.856;151.182;2023-07-24T12:17:01;14.70;;;6.63;;
20802;SDS011;10562;-33.856;151.182;2023-07-24T12:19:37;18.23;;;7.35;;
20802;SDS011;10562;-33.856;151.182;2023-07-24T12:22:08;17.73;;;7.45;;
20802;SDS011;10562;-33.856;151.182;2023-07-24T12:24:39;22.65;;;7.40;;
20802;SDS011;10562;-33.856;151.182;2023-07-24T12:27:10;18.42;;;7.85;;
20802;SDS011;10562;-33.856;151.182;2023-07-24T12:29:40;17.13;;;7.68;;
20802;SDS011;10562;-33.856;151.182;2023-07-24T12:32:11;23.38;;;8.02;;
20802;SDS011;10562;-33.856;151.182;2023-07-24T12:34:44;24.42;;;7.95;;
20802;SDS011;10562;-33.856;151.182;2023-07-24T12:37:15;19.35;;;7.68;;
20802;SDS011;10562;-33.856;151.182;2023-07-24T12:39:46;21.00;;;7.22;;
20802;SDS011;10562;-33.856;151.182;2023-07-24T12:42:18;18.85;;;6.68;;
20802;SDS011;10562;-33.856;151.182;2023-07-24T12:44:49;16.33;;;7.15;;
20802;SDS011;10562;-33.856;151.182;2023-07-24T12:47:20;22.33;;;7.82;;
20802;SDS011;10562;-33.856;151.182;2023-07-24T12:49:53;21.00;;;7.53;;
20802;SDS011;10562;-33.856;151.182;2023-07-24T12:52:24;19.38;;;7.18;;
20802;SDS011;10562;-33.856;151.182;2023-07-24T12:54:55;17.83;;;7.25;;
20802;SDS011;10562;-33.856;151.182;2023-07-24T12:57:26;23.73;;;7.85;;
20802;SDS011;10562;-33.856;151.182;2023-07-24T12:59:56;19.20;;;7.50;;
20802;SDS011;10562;-33.856;151.182;2023-07-24T13:02:27;23.05;;;7.45;;
20802;SDS011;10562;-33.856;151.182;2023-07-24T13:05:00;23.67;;;8.32;;
20802;SDS011;10562;-33.856;151.182;2023-07-24T13:07:30;18.17;;;8.15;;
20802;SDS011;10562;-33.856;151.182;2023-07-24T13:10:01;21.77;;;8.85;;
20802;SDS011;10562;-33.856;151.182;2023-07-24T13:12:33;26.20;;;8.85;;
20802;SDS011;10562;-33.856;151.182;2023-07-24T13:15:04;24.88;;;8.05;;
20802;SDS011;10562;-33.856;151.182;2023-07-24T13:17:36;20.80;;;7.97;;
20802;SDS011;10562;-33.856;151.182;2023-07-24T13:20:10;19.48;;;8.05;;
20802;SDS011;10562;-33.856;151.182;2023-07-24T13:22:41;17.17;;;7.97;;
20802;SDS011;10562;-33.856;151.182;2023-07-24T13:25:13;22.27;;;8.38;;
20802;SDS011;10562;-33.856;151.182;2023-07-24T13:27:45;20.42;;;8.23;;
20802;SDS011;10562;-33.856;151.182;2023-07-24T13:30:17;23.33;;;8.73;;
20802;SDS011;10562;-33.856;151.182;2023-07-24T13:32:48;22.65;;;9.30;;
20802;SDS011;10562;-33.856;151.182;2023-07-24T13:35:20;20.70;;;8.27;;
20802;SDS011;10562;-33.856;151.182;2023-07-24T13:37:51;21.17;;;8.48;;
20802;SDS011;10562;-33.856;151.182;2023-07-24T13:40:22;22.30;;;8.40;;
20802;SDS011;10562;-33.856;151.182;2023-07-24T13:42:53;19.65;;;8.13;;
20802;SDS011;10562;-33.856;151.182;2023-07-24T13:45:23;21.05;;;8.82;;
20802;SDS011;10562;-33.856;151.182;2023-07-24T13:47:54;21.05;;;8.43;;
20802;SDS011;10562;-33.856;151.182;2023-07-24T13:50:28;21.63;;;8.57;;
20802;SDS011;10562;-33.856;151.182;2023-07-24T13:52:58;25.35;;;8.48;;
20802;SDS011;10562;-33.856;151.182;2023-07-24T13:55:29;21.65;;;8.73;;
20802;SDS011;10562;-33.856;151.182;2023-07-24T13:58:00;24.92;;;8.43;;
20802;SDS011;10562;-33.856;151.182;2023-07-24T14:00:31;21.02;;;8.48;;
20802;SDS011;10562;-33.856;151.182;2023-07-24T14:03:02;17.77;;;8.15;;
20802;SDS011;10562;-33.856;151.182;2023-07-24T14:05:35;20.25;;;8.52;;
20802;SDS011;10562;-33.856;151.182;2023-07-24T14:08:06;19.85;;;8.43;;
20802;SDS011;10562;-33.856;151.182;2023-07-24T14:10:38;19.48;;;8.27;;
20802;SDS011;10562;-33.856;151.182;2023-07-24T14:13:08;17.63;;;8.20;;
20802;SDS011;10562;-33.856;151.182;2023-07-24T14:15:40;18.95;;;7.80;;
20802;SDS011;10562;-33.856;151.182;2023-07-24T14:24:57;21.77;;;8.10;;
20802;SDS011;10562;-33.856;151.182;2023-07-24T14:27:28;20.38;;;7.72;;
20802;SDS011;10562;-33.856;151.182;2023-07-24T14:29:58;23.30;;;8.32;;
20802;SDS011;10562;-33.856;151.182;2023-07-24T14:32:29;21.23;;;7.78;;
20802;SDS011;10562;-33.856;151.182;2023-07-24T14:35:00;22.33;;;8.10;;